Baraka — ZGAE5 — position and weather

sailwx.info

Track history (hours):
 
Tides and Currents Weather Stations Pressure Air Temp Water Temp Dewpoint Dewpoint Depression Visibility Wind Speed Wind Dir Waves Ship Positions

Baraka

Last reported at 2014-Jul-26 20:27 UTC. Time now 2014-Jul-29 16:49 UTC.
Position N 40°40' E 013°47'.

Length 59 m; draft 3.3 m.

Type: Other ship. MMSI: 319015300.

Date/timePositionNaut miles runAvg speedWind from/ knotsBaromVisibWave heightAir tempDewpointWater temp
2014-Jul-26 20:27N 40°40' E 013°47'1011.4
2014-Jul-26 19:33N 40°39' E 014°00'1110.9
2014-Jul-26 18:33N 40°46' E 014°11'4 1.0
2014-Jul-26 14:28N 40°49' E 014°14'0 0.0
2014-Jul-26 00:17N 40°50' E 014°14'0 0.0
2014-Jul-25 22:23N 40°50' E 014°14'0 0.0
2014-Jul-25 19:29N 40°50' E 014°14'0 0.0
2014-Jul-25 18:20N 40°50' E 014°14'0 0.0
2014-Jul-25 03:26N 40°50' E 014°14'0 0.0
2014-Jul-25 02:23N 40°50' E 014°14'0 0.0
2014-Jul-25 00:32N 40°50' E 014°14'0 0.0
2014-Jul-24 22:26N 40°50' E 014°14'1 1.2
2014-Jul-24 21:34N 40°49' E 014°15'1110.9
2014-Jul-24 20:33N 40°39' E 014°22'1 1.3
2014-Jul-24 19:34N 40°38' E 014°23'0 0.0
2014-Jul-24 18:33N 40°38' E 014°23'0 0.0
2014-Jul-24 17:33N 40°38' E 014°23'0 0.0
2014-Jul-24 16:32N 40°38' E 014°23'1 0.7
2014-Jul-24 15:33N 40°38' E 014°22'8 2.7
2014-Jul-24 12:27N 40°32' E 014°14'11 0.4
2014-Jul-23 08:23N 40°36' E 014°28'9 8.8
2014-Jul-23 07:23N 40°32' E 014°17'4 5.0
2014-Jul-23 06:33N 40°34' E 014°12'1 0.8
2014-Jul-23 05:28N 40°34' E 014°13'0 0.0
2014-Jul-23 04:25N 40°34' E 014°13'0 0.0
2014-Jul-23 03:19N 40°34' E 014°13'0 0.0
2014-Jul-23 02:28N 40°34' E 014°13'0 0.0
2014-Jul-23 01:31N 40°34' E 014°13'0 0.0
2014-Jul-23 00:28N 40°34' E 014°13'0 0.0
2014-Jul-22 23:31N 40°34' E 014°13'0 0.0
2014-Jul-22 22:31N 40°34' E 014°13'0 0.0
2014-Jul-22 21:31N 40°34' E 014°13'0 0.0
2014-Jul-22 20:28N 40°34' E 014°13'0 0.0
2014-Jul-22 19:28N 40°34' E 014°13'2 2.3
2014-Jul-22 18:33N 40°34' E 014°16'4 3.9
2014-Jul-22 17:33N 40°38' E 014°16'8 8.1
2014-Jul-22 16:33N 40°46' E 014°14'4 0.2
2014-Jul-21 19:54N 40°50' E 014°14'0 0.7
2014-Jul-21 19:25N 40°49' E 014°14'0 0.0
2014-Jul-21 17:22N 40°49' E 014°14'0 0.0
2014-Jul-21 16:22N 40°49' E 014°14'0 0.0
2014-Jul-21 15:22N 40°49' E 014°14'0 0.0
2014-Jul-21 10:10N 40°49' E 014°14'0 0.0
2014-Jul-21 04:31N 40°50' E 014°14'0 0.0
2014-Jul-21 03:31N 40°50' E 014°14'0 0.0
2014-Jul-21 02:31N 40°50' E 014°14'0 0.1
2014-Jul-21 01:28N 40°49' E 014°14'0 0.0
2014-Jul-21 00:25N 40°49' E 014°14'0 0.0
2014-Jul-20 23:31N 40°49' E 014°14'0 0.0
2014-Jul-20 22:32N 40°49' E 014°14'3 2.6
2014-Jul-20 21:33N 40°47' E 014°15'1111.2
2014-Jul-20 20:34N 40°36' E 014°17'1211.7
2014-Jul-20 19:32N 40°25' E 014°23'9011.3
2014-Jul-20 11:34N 39°04' E 015°14'  
Track history (hours):
 
Tides and Currents Weather Stations Pressure Air Temp Water Temp Dewpoint Dewpoint Depression Visibility Wind Speed Wind Dir Waves Ship Positions

Baraka

Last reported at 2014-Jul-26 20:27 UTC. Time now 2014-Jul-29 16:49 UTC.
Position N 40°40' E 013°47'.

Length 59 m; draft 3.3 m.

Type: Other ship. MMSI: 319015300.

Date/timePositionNaut miles runAvg speedWind from/ knotsBaromVisibWave heightAir tempDewpointWater temp
2014-Jul-26 20:27N 40°40' E 013°47'1011.4
2014-Jul-26 19:33N 40°39' E 014°00'1110.9
2014-Jul-26 18:33N 40°46' E 014°11'4 1.0
2014-Jul-26 14:28N 40°49' E 014°14'0 0.0
2014-Jul-26 00:17N 40°50' E 014°14'0 0.0
2014-Jul-25 22:23N 40°50' E 014°14'0 0.0
2014-Jul-25 19:29N 40°50' E 014°14'0 0.0
2014-Jul-25 18:20N 40°50' E 014°14'0 0.0
2014-Jul-25 03:26N 40°50' E 014°14'0 0.0
2014-Jul-25 02:23N 40°50' E 014°14'0 0.0
2014-Jul-25 00:32N 40°50' E 014°14'0 0.0
2014-Jul-24 22:26N 40°50' E 014°14'1 1.2
2014-Jul-24 21:34N 40°49' E 014°15'1110.9
2014-Jul-24 20:33N 40°39' E 014°22'1 1.3
2014-Jul-24 19:34N 40°38' E 014°23'0 0.0
2014-Jul-24 18:33N 40°38' E 014°23'0 0.0
2014-Jul-24 17:33N 40°38' E 014°23'0 0.0
2014-Jul-24 16:32N 40°38' E 014°23'1 0.7
2014-Jul-24 15:33N 40°38' E 014°22'8 2.7
2014-Jul-24 12:27N 40°32' E 014°14'11 0.4
2014-Jul-23 08:23N 40°36' E 014°28'9 8.8
2014-Jul-23 07:23N 40°32' E 014°17'4 5.0
2014-Jul-23 06:33N 40°34' E 014°12'1 0.8
2014-Jul-23 05:28N 40°34' E 014°13'0 0.0
2014-Jul-23 04:25N 40°34' E 014°13'0 0.0
2014-Jul-23 03:19N 40°34' E 014°13'0 0.0
2014-Jul-23 02:28N 40°34' E 014°13'0 0.0
2014-Jul-23 01:31N 40°34' E 014°13'0 0.0
2014-Jul-23 00:28N 40°34' E 014°13'0 0.0
2014-Jul-22 23:31N 40°34' E 014°13'0 0.0
2014-Jul-22 22:31N 40°34' E 014°13'0 0.0
2014-Jul-22 21:31N 40°34' E 014°13'0 0.0
2014-Jul-22 20:28N 40°34' E 014°13'0 0.0
2014-Jul-22 19:28N 40°34' E 014°13'2 2.3
2014-Jul-22 18:33N 40°34' E 014°16'4 3.9
2014-Jul-22 17:33N 40°38' E 014°16'8 8.1
2014-Jul-22 16:33N 40°46' E 014°14'4 0.2
2014-Jul-21 19:54N 40°50' E 014°14'0 0.7
2014-Jul-21 19:25N 40°49' E 014°14'0 0.0
2014-Jul-21 17:22N 40°49' E 014°14'0 0.0
2014-Jul-21 16:22N 40°49' E 014°14'0 0.0
2014-Jul-21 15:22N 40°49' E 014°14'0 0.0
2014-Jul-21 10:10N 40°49' E 014°14'0 0.0
2014-Jul-21 04:31N 40°50' E 014°14'0 0.0
2014-Jul-21 03:31N 40°50' E 014°14'0 0.0
2014-Jul-21 02:31N 40°50' E 014°14'0 0.1
2014-Jul-21 01:28N 40°49' E 014°14'0 0.0
2014-Jul-21 00:25N 40°49' E 014°14'0 0.0
2014-Jul-20 23:31N 40°49' E 014°14'0 0.0
2014-Jul-20 22:32N 40°49' E 014°14'3 2.6
2014-Jul-20 21:33N 40°47' E 014°15'1111.2
2014-Jul-20 20:34N 40°36' E 014°17'1211.7
2014-Jul-20 19:32N 40°25' E 014°23'9011.3
2014-Jul-20 11:34N 39°04' E 015°14'  

Dump ship's entire track history